createdAt,value
2023-01-19T00:05:03.793Z,17.3
2023-01-19T00:10:26.262Z,17.3
2023-01-19T00:15:50.045Z,17.1
2023-01-19T00:26:07.031Z,17.2
2023-01-19T00:31:29.831Z,17.3
2023-01-19T00:36:53.147Z,17.3
2023-01-19T00:42:15.045Z,17.2
2023-01-19T00:47:37.874Z,17.2
2023-01-19T00:53:01.053Z,17.3
2023-01-19T00:58:23.719Z,17.3
2023-01-19T01:04:01.800Z,17.2
2023-01-19T01:09:08.949Z,17.1
2023-01-19T01:15:05.185Z,17.3
2023-01-19T01:20:28.460Z,17.3
2023-01-19T01:25:52.058Z,17.3
2023-01-19T01:31:16.956Z,17.1
2023-01-19T01:37:01.883Z,17.2
2023-01-19T01:42:24.189Z,17.3
2023-01-19T01:47:30.844Z,17.3
2023-01-19T01:53:06.186Z,17.2
2023-01-19T01:58:29.859Z,17.1
2023-01-19T02:03:38.783Z,17.1
2023-01-19T02:09:02.790Z,17.3
2023-01-19T02:14:25.584Z,17.3
2023-01-19T02:19:47.159Z,17.2
2023-01-19T02:24:54.687Z,17.1
2023-01-19T02:30:17.471Z,17.1
2023-01-19T02:35:40.468Z,17.3
2023-01-19T02:41:03.522Z,17.3
2023-01-19T02:46:26.294Z,17.1
2023-01-19T02:51:49.151Z,17.1
2023-01-19T02:57:12.135Z,17.1
2023-01-19T03:02:35.970Z,17.3
2023-01-19T03:07:41.987Z,17.3
2023-01-19T03:12:49.150Z,17.1
2023-01-19T03:18:14.077Z,17.1
2023-01-19T03:23:35.851Z,17.1
2023-01-19T03:28:59.133Z,17.3
2023-01-19T03:34:22.365Z,17.2
2023-01-19T03:39:44.123Z,17.2
2023-01-19T03:44:51.698Z,17.1
2023-01-19T03:50:14.769Z,17.1
2023-01-19T03:55:36.621Z,17.3
2023-01-19T04:00:59.627Z,17.3
2023-01-19T04:06:22.882Z,17.2
2023-01-19T04:11:44.822Z,17.1
2023-01-19T04:17:07.772Z,17.1
2023-01-19T04:22:30.747Z,17.3
2023-01-19T04:27:53.836Z,17.3
2023-01-19T04:33:17.330Z,17.2
2023-01-19T04:38:26.893Z,17.1
2023-01-19T04:43:49.704Z,17.2
2023-01-19T04:48:58.556Z,17.3
2023-01-19T04:54:06.388Z,17.3
2023-01-19T04:59:28.903Z,17.2
2023-01-19T05:04:52.638Z,17.1
2023-01-19T05:09:59.405Z,17.2
2023-01-19T05:15:21.195Z,17.4
2023-01-19T05:20:31.480Z,17.3
2023-01-19T05:25:38.741Z,17.2
2023-01-19T05:30:46.271Z,17.1
2023-01-19T05:36:22.685Z,17.2
2023-01-19T05:41:55.598Z,17.4
2023-01-19T05:47:19.768Z,17.3
2023-01-19T05:52:42.493Z,17.3
2023-01-19T05:58:05.453Z,17.1
2023-01-19T06:03:29.025Z,17.1
2023-01-19T06:08:54.600Z,17.3
2023-01-19T06:14:01.518Z,17.1
2023-01-19T06:19:24.587Z,17.1
2023-01-19T06:24:49.309Z,16.9
2023-01-19T06:30:11.807Z,16.9
2023-01-19T06:35:35.274Z,16.8
2023-01-19T06:40:57.837Z,16.8
2023-01-19T06:56:56.890Z,16.9
2023-01-19T07:02:44.231Z,16.8
2023-01-19T07:08:07.073Z,16.7
2023-01-19T07:14:31.288Z,16.6
2023-01-19T07:19:54.905Z,16.8
2023-01-19T07:25:18.051Z,16.9
2023-01-19T07:30:40.084Z,16.8
2023-01-19T07:36:03.826Z,16.8
2023-01-19T07:41:26.509Z,16.6
2023-01-19T07:46:49.421Z,16.6
2023-01-19T07:52:12.091Z,16.6
2023-01-19T07:57:34.417Z,16.8
2023-01-19T08:02:58.595Z,16.9
2023-01-19T08:08:22.084Z,16.8
2023-01-19T08:13:28.977Z,16.7
2023-01-19T08:18:52.074Z,16.6
2023-01-19T08:24:14.916Z,16.5
2023-01-19T08:29:40.127Z,16.6
2023-01-19T08:35:00.659Z,16.6
2023-01-19T08:40:23.287Z,16.6
2023-01-19T08:45:54.831Z,16.6
2023-01-19T08:51:17.551Z,16.4
2023-01-19T08:56:40.751Z,16.4
2023-01-19T09:01:58.938Z,16.3
2023-01-19T09:07:06.949Z,16.3
2023-01-19T09:12:30.570Z,16.3
2023-01-19T09:17:53.653Z,16.4
2023-01-19T09:23:16.444Z,16.5
2023-01-19T09:28:39.102Z,16.5
2023-01-19T09:34:02.381Z,16.5
2023-01-19T09:39:26.058Z,16.4
2023-01-19T09:44:49.121Z,16.4
2023-01-19T09:50:12.000Z,16.4
2023-01-19T09:55:35.027Z,16.3
2023-01-19T10:00:58.279Z,16.3
2023-01-19T10:06:24.678Z,16.3
2023-01-19T10:11:58.558Z,16.2
2023-01-19T10:17:21.339Z,16.2
2023-01-19T10:22:31.105Z,16.1
2023-01-19T10:27:54.560Z,16.1
2023-01-19T10:33:19.123Z,16.1
2023-01-19T10:38:42.325Z,16
2023-01-19T10:43:51.781Z,15.9
2023-01-19T10:49:14.899Z,15.9
2023-01-19T10:54:22.314Z,15.9
2023-01-19T10:59:14.035Z,15.8
2023-01-19T11:04:22.861Z,15.8
2023-01-19T11:09:29.878Z,15.8
2023-01-19T11:14:52.294Z,15.7
2023-01-19T11:20:14.823Z,15.6
2023-01-19T11:25:37.008Z,15.6
2023-01-19T11:31:00.418Z,15.6
2023-01-19T11:36:23.956Z,15.6
2023-01-19T11:41:46.143Z,15.5
2023-01-19T11:47:23.289Z,15.5
2023-01-19T11:52:16.429Z,15.4
2023-01-19T11:57:22.995Z,15.4
2023-01-19T12:02:30.997Z,15.4
2023-01-19T12:07:38.678Z,15.4
2023-01-19T12:12:45.757Z,15.4
2023-01-19T12:18:08.699Z,15.4
2023-01-19T12:23:35.759Z,15.4
2023-01-19T12:28:58.852Z,15.3
2023-01-19T12:34:08.426Z,15.3
2023-01-19T12:39:31.592Z,15.3
2023-01-19T12:44:54.389Z,15.3
2023-01-19T12:50:22.074Z,15.3
2023-01-19T12:55:47.031Z,15.3
2023-01-19T13:01:09.081Z,15.3
2023-01-19T13:06:32.245Z,15.3
2023-01-19T13:12:00.610Z,15.2
2023-01-19T13:17:23.114Z,15.2
2023-01-19T13:22:45.815Z,15.2
2023-01-19T13:28:08.295Z,15.2
2023-01-19T13:33:31.398Z,15.2
2023-01-19T13:38:55.018Z,15.2
2023-01-19T13:44:18.096Z,15.2
2023-01-19T13:49:28.500Z,15.2
2023-01-19T13:54:54.287Z,15.2
2023-01-19T14:00:17.780Z,15.2
2023-01-19T14:05:42.716Z,15.2
2023-01-19T14:11:05.710Z,15.2
2023-01-19T14:16:37.349Z,15.2
2023-01-19T14:22:01.493Z,15.2
2023-01-19T14:27:24.498Z,15.1
2023-01-19T14:32:47.151Z,15.1
2023-01-19T14:37:54.653Z,15.1
2023-01-19T14:43:17.489Z,15.1
2023-01-19T14:48:40.890Z,15.1
2023-01-19T14:54:17.916Z,15.1
2023-01-19T14:59:41.098Z,15.1
2023-01-19T15:05:17.399Z,15.1
2023-01-19T15:10:39.873Z,15.1
2023-01-19T15:15:47.218Z,15.1
2023-01-19T15:21:10.425Z,15.1
2023-01-19T15:26:18.151Z,15.1
2023-01-19T15:31:25.978Z,15.1
2023-01-19T15:36:34.866Z,15.1
2023-01-19T15:41:26.542Z,15.1
2023-01-19T15:46:17.856Z,15.1
2023-01-19T15:51:26.137Z,15.1
2023-01-19T15:56:18.657Z,15.1
2023-01-19T16:01:41.351Z,15.1
2023-01-19T16:07:07.119Z,15.1
2023-01-19T16:12:30.540Z,15.1
2023-01-19T16:17:55.037Z,15.1
2023-01-19T16:23:31.663Z,15.1
2023-01-19T16:28:54.475Z,15.1
2023-01-19T16:34:01.670Z,15.1
2023-01-19T16:39:11.286Z,15.1
2023-01-19T16:44:36.393Z,15.1
2023-01-19T16:49:58.474Z,15.1
2023-01-19T16:55:21.203Z,15.1
2023-01-19T17:00:29.188Z,15.1
2023-01-19T17:05:51.969Z,15.1
2023-01-19T17:11:15.147Z,15.1
2023-01-19T17:16:38.037Z,15.3
2023-01-19T17:21:44.785Z,15.8
2023-01-19T17:27:07.646Z,16
2023-01-19T17:32:00.286Z,16.3
2023-01-19T17:37:07.781Z,16.4
2023-01-19T17:42:14.934Z,16.6
2023-01-19T17:47:06.320Z,16.6
2023-01-19T17:51:58.199Z,16.6
2023-01-19T17:57:08.246Z,16.6
2023-01-19T18:02:32.616Z,16.8
2023-01-19T18:07:57.101Z,16.8
2023-01-19T18:13:07.073Z,16.7
2023-01-19T18:18:31.623Z,16.6
2023-01-19T18:23:56.308Z,16.6
2023-01-19T18:29:05.262Z,16.4
2023-01-19T18:34:30.407Z,16.4
2023-01-19T18:39:56.005Z,16.3
2023-01-19T18:45:21.246Z,16.5
2023-01-19T18:50:53.568Z,16.6
2023-01-19T18:56:28.922Z,16.6
2023-01-19T19:02:08.945Z,16.6
2023-01-19T19:07:50.053Z,16.5
2023-01-19T19:13:09.437Z,16.4
2023-01-19T19:18:30.205Z,16.4
2023-01-19T19:23:48.451Z,16.3
2023-01-19T19:29:09.113Z,16.3
2023-01-19T19:34:30.507Z,16.4
2023-01-19T19:40:11.767Z,16.6
2023-01-19T19:45:54.667Z,16.6
2023-01-19T19:51:29.273Z,16.4
2023-01-19T19:57:07.033Z,16.4
2023-01-19T20:02:32.127Z,16.4
2023-01-19T20:08:11.877Z,16.4
2023-01-19T20:13:54.594Z,16.3
2023-01-19T20:19:18.660Z,16.4
2023-01-19T20:24:56.338Z,16.6
2023-01-19T20:30:15.830Z,16.6
2023-01-19T20:35:31.401Z,16.6
2023-01-19T20:40:43.486Z,16.6
2023-01-19T20:45:56.435Z,16.5
2023-01-19T20:51:06.439Z,16.4
2023-01-19T20:56:17.496Z,16.4
2023-01-19T21:01:30.376Z,16.3
2023-01-19T21:06:43.655Z,16.4
2023-01-19T21:11:55.909Z,16.6
2023-01-19T21:17:07.506Z,16.8
2023-01-19T21:22:09.094Z,16.7
2023-01-19T21:27:16.897Z,16.6
2023-01-19T21:32:24.877Z,16.5
2023-01-19T21:37:16.860Z,16.4
2023-01-19T21:42:24.478Z,16.4
2023-01-19T21:47:31.914Z,16.3
2023-01-19T21:52:39.789Z,16.3
2023-01-19T21:57:46.829Z,16.4
2023-01-19T22:03:20.437Z,16.6
2023-01-19T22:08:27.786Z,16.6
2023-01-19T22:13:36.849Z,16.6
2023-01-19T22:18:44.274Z,16.8
2023-01-19T22:23:36.315Z,16.9
2023-01-19T22:28:43.622Z,16.9
2023-01-19T22:33:51.615Z,16.9
2023-01-19T22:39:15.223Z,17.1
2023-01-19T22:44:38.101Z,17.1
2023-01-19T22:50:02.572Z,17.1
2023-01-19T22:55:10.347Z,17.1
2023-01-19T23:00:32.485Z,17.2
2023-01-19T23:05:41.881Z,17.2
2023-01-19T23:11:04.628Z,17.1
2023-01-19T23:16:11.535Z,17.1
2023-01-19T23:21:19.043Z,17.3
2023-01-19T23:26:26.616Z,17.3
2023-01-19T23:31:49.464Z,17.3
2023-01-19T23:37:11.700Z,17.1
2023-01-19T23:42:33.876Z,17.1
2023-01-19T23:47:56.628Z,17.2
2023-01-19T23:52:47.961Z,17.2
2023-01-19T23:57:39.499Z,17.1
